sensor_id;sensor_type;location;lat;lon;timestamp;temperature;humidity
6930;DHT22;3504;52.616;13.238;2023-11-21T00:04:06;7.71;88.84
6930;DHT22;3504;52.616;13.238;2023-11-21T00:09:07;7.61;88.24
6930;DHT22;3504;52.616;13.238;2023-11-21T00:14:08;7.64;89.00
6930;DHT22;3504;52.616;13.238;2023-11-21T00:19:09;7.63;89.16
6930;DHT22;3504;52.616;13.238;2023-11-21T00:24:11;7.65;88.83
6930;DHT22;3504;52.616;13.238;2023-11-21T00:29:14;7.53;88.41
6930;DHT22;3504;52.616;13.238;2023-11-21T00:34:14;7.37;88.40
6930;DHT22;3504;52.616;13.238;2023-11-21T00:39:15;7.16;88.20
6930;DHT22;3504;52.616;13.238;2023-11-21T00:44:15;7.18;89.01
6930;DHT22;3504;52.616;13.238;2023-11-21T00:49:16;7.16;88.96
6930;DHT22;3504;52.616;13.238;2023-11-21T00:54:16;7.12;88.75
6930;DHT22;3504;52.616;13.238;2023-11-21T00:59:17;7.09;88.71
6930;DHT22;3504;52.616;13.238;2023-11-21T01:04:17;6.92;89.17
6930;DHT22;3504;52.616;13.238;2023-11-21T01:09:18;6.92;89.23
6930;DHT22;3504;52.616;13.238;2023-11-21T01:14:19;6.99;89.37
6930;DHT22;3504;52.616;13.238;2023-11-21T01:19:20;6.99;89.23
6930;DHT22;3504;52.616;13.238;2023-11-21T01:24:20;6.95;89.52
6930;DHT22;3504;52.616;13.238;2023-11-21T01:29:21;6.92;89.13
6930;DHT22;3504;52.616;13.238;2023-11-21T01:34:21;6.91;88.99
6930;DHT22;3504;52.616;13.238;2023-11-21T01:39:22;6.87;89.06
6930;DHT22;3504;52.616;13.238;2023-11-21T01:44:24;6.80;88.69
6930;DHT22;3504;52.616;13.238;2023-11-21T01:49:25;6.75;88.85
6930;DHT22;3504;52.616;13.238;2023-11-21T01:54:26;6.77;89.12
6930;DHT22;3504;52.616;13.238;2023-11-21T01:59:27;6.75;88.90
6930;DHT22;3504;52.616;13.238;2023-11-21T02:04:32;6.65;88.67
6930;DHT22;3504;52.616;13.238;2023-11-21T02:09:33;6.64;88.67
6930;DHT22;3504;52.616;13.238;2023-11-21T02:14:34;6.58;88.37
6930;DHT22;3504;52.616;13.238;2023-11-21T02:19:34;6.52;88.58
6930;DHT22;3504;52.616;13.238;2023-11-21T02:24:35;6.60;88.97
6930;DHT22;3504;52.616;13.238;2023-11-21T02:29:37;6.47;88.47
6930;DHT22;3504;52.616;13.238;2023-11-21T02:34:38;6.52;88.50
6930;DHT22;3504;52.616;13.238;2023-11-21T02:39:39;6.50;87.44
6930;DHT22;3504;52.616;13.238;2023-11-21T02:44:39;6.44;88.09
6930;DHT22;3504;52.616;13.238;2023-11-21T02:49:40;6.31;87.90
6930;DHT22;3504;52.616;13.238;2023-11-21T02:54:41;6.33;88.14
6930;DHT22;3504;52.616;13.238;2023-11-21T02:59:41;6.27;88.30
6930;DHT22;3504;52.616;13.238;2023-11-21T03:04:42;6.27;88.52
6930;DHT22;3504;52.616;13.238;2023-11-21T03:09:42;6.29;88.18
6930;DHT22;3504;52.616;13.238;2023-11-21T03:14:43;6.30;88.35
6930;DHT22;3504;52.616;13.238;2023-11-21T03:19:43;6.29;88.57
6930;DHT22;3504;52.616;13.238;2023-11-21T03:24:44;6.34;88.37
6930;DHT22;3504;52.616;13.238;2023-11-21T03:29:45;6.29;87.97
6930;DHT22;3504;52.616;13.238;2023-11-21T03:34:57;6.21;88.49
6930;DHT22;3504;52.616;13.238;2023-11-21T03:39:58;6.23;88.32
6930;DHT22;3504;52.616;13.238;2023-11-21T03:44:58;6.10;88.11
6930;DHT22;3504;52.616;13.238;2023-11-21T03:49:59;6.17;88.59
6930;DHT22;3504;52.616;13.238;2023-11-21T03:54:59;6.14;88.07
6930;DHT22;3504;52.616;13.238;2023-11-21T04:00:00;6.11;87.87
6930;DHT22;3504;52.616;13.238;2023-11-21T04:05:01;6.03;87.24
6930;DHT22;3504;52.616;13.238;2023-11-21T04:10:01;6.05;87.14
6930;DHT22;3504;52.616;13.238;2023-11-21T04:15:03;5.98;87.56
6930;DHT22;3504;52.616;13.238;2023-11-21T04:20:05;6.02;87.82
6930;DHT22;3504;52.616;13.238;2023-11-21T04:25:10;6.07;87.90
6930;DHT22;3504;52.616;13.238;2023-11-21T04:30:14;6.13;87.77
6930;DHT22;3504;52.616;13.238;2023-11-21T04:35:15;6.13;87.41
6930;DHT22;3504;52.616;13.238;2023-11-21T04:40:15;6.16;87.73
6930;DHT22;3504;52.616;13.238;2023-11-21T04:45:16;6.13;86.90
6930;DHT22;3504;52.616;13.238;2023-11-21T04:50:16;6.00;86.60
6930;DHT22;3504;52.616;13.238;2023-11-21T04:55:17;5.86;86.43
6930;DHT22;3504;52.616;13.238;2023-11-21T05:00:17;5.82;86.75
6930;DHT22;3504;52.616;13.238;2023-11-21T05:05:18;5.75;86.65
6930;DHT22;3504;52.616;13.238;2023-11-21T05:10:19;5.65;86.57
6930;DHT22;3504;52.616;13.238;2023-11-21T05:15:20;5.62;86.66
6930;DHT22;3504;52.616;13.238;2023-11-21T05:20:21;5.59;87.05
6930;DHT22;3504;52.616;13.238;2023-11-21T05:25:21;5.59;86.67
6930;DHT22;3504;52.616;13.238;2023-11-21T05:30:22;5.55;86.79
6930;DHT22;3504;52.616;13.238;2023-11-21T05:35:22;5.57;86.96
6930;DHT22;3504;52.616;13.238;2023-11-21T05:40:23;5.58;86.97
6930;DHT22;3504;52.616;13.238;2023-11-21T05:45:23;5.49;86.44
6930;DHT22;3504;52.616;13.238;2023-11-21T05:50:24;5.51;86.97
6930;DHT22;3504;52.616;13.238;2023-11-21T05:55:24;5.58;87.22
6930;DHT22;3504;52.616;13.238;2023-11-21T06:00:26;5.67;87.41
6930;DHT22;3504;52.616;13.238;2023-11-21T06:05:29;5.72;87.35
6930;DHT22;3504;52.616;13.238;2023-11-21T06:10:32;5.62;86.82
6930;DHT22;3504;52.616;13.238;2023-11-21T06:15:32;5.52;86.02
6930;DHT22;3504;52.616;13.238;2023-11-21T06:20:33;5.49;86.10
6930;DHT22;3504;52.616;13.238;2023-11-21T06:25:34;5.47;86.42
6930;DHT22;3504;52.616;13.238;2023-11-21T06:30:36;5.37;84.92
6930;DHT22;3504;52.616;13.238;2023-11-21T06:35:37;5.30;84.80
6930;DHT22;3504;52.616;13.238;2023-11-21T06:40:37;5.18;84.60
6930;DHT22;3504;52.616;13.238;2023-11-21T06:45:38;5.20;85.22
6930;DHT22;3504;52.616;13.238;2023-11-21T06:50:39;5.20;85.16
6930;DHT22;3504;52.616;13.238;2023-11-21T06:55:39;5.11;84.62
6930;DHT22;3504;52.616;13.238;2023-11-21T07:00:40;5.01;83.79
6930;DHT22;3504;52.616;13.238;2023-11-21T07:05:40;5.08;84.18
6930;DHT22;3504;52.616;13.238;2023-11-21T07:10:41;5.08;83.66
6930;DHT22;3504;52.616;13.238;2023-11-21T07:15:41;5.17;84.13
6930;DHT22;3504;52.616;13.238;2023-11-21T07:20:42;5.14;83.91
6930;DHT22;3504;52.616;13.238;2023-11-21T07:25:42;5.20;84.21
6930;DHT22;3504;52.616;13.238;2023-11-21T07:30:43;5.25;84.69
6930;DHT22;3504;52.616;13.238;2023-11-21T07:35:44;5.21;84.02
6930;DHT22;3504;52.616;13.238;2023-11-21T07:40:44;5.17;84.31
6930;DHT22;3504;52.616;13.238;2023-11-21T07:45:45;5.17;83.99
6930;DHT22;3504;52.616;13.238;2023-11-21T07:50:45;5.27;84.67
6930;DHT22;3504;52.616;13.238;2023-11-21T07:55:48;5.27;84.83
6930;DHT22;3504;52.616;13.238;2023-11-21T08:00:49;5.25;84.01
6930;DHT22;3504;52.616;13.238;2023-11-21T08:05:50;5.35;84.55
6930;DHT22;3504;52.616;13.238;2023-11-21T08:10:51;5.38;84.34
6930;DHT22;3504;52.616;13.238;2023-11-21T08:15:58;5.32;83.28
6930;DHT22;3504;52.616;13.238;2023-11-21T08:21:02;5.34;84.05
6930;DHT22;3504;52.616;13.238;2023-11-21T08:26:04;5.31;83.90
6930;DHT22;3504;52.616;13.238;2023-11-21T08:31:05;5.44;83.97
6930;DHT22;3504;52.616;13.238;2023-11-21T08:36:09;5.58;83.92
6930;DHT22;3504;52.616;13.238;2023-11-21T08:41:12;5.57;83.32
6930;DHT22;3504;52.616;13.238;2023-11-21T08:46:14;5.44;83.04
6930;DHT22;3504;52.616;13.238;2023-11-21T08:51:15;5.39;83.30
6930;DHT22;3504;52.616;13.238;2023-11-21T08:56:16;5.28;83.65
6930;DHT22;3504;52.616;13.238;2023-11-21T09:01:16;5.25;83.53
6930;DHT22;3504;52.616;13.238;2023-11-21T09:06:17;5.13;83.49
6930;DHT22;3504;52.616;13.238;2023-11-21T09:11:18;5.18;84.26
6930;DHT22;3504;52.616;13.238;2023-11-21T09:16:19;5.21;83.83
6930;DHT22;3504;52.616;13.238;2023-11-21T09:21:19;5.37;84.66
6930;DHT22;3504;52.616;13.238;2023-11-21T09:26:20;5.38;83.58
6930;DHT22;3504;52.616;13.238;2023-11-21T09:31:20;5.28;83.82
6930;DHT22;3504;52.616;13.238;2023-11-21T09:36:23;5.18;83.45
6930;DHT22;3504;52.616;13.238;2023-11-21T09:41:43;5.17;84.37
6930;DHT22;3504;52.616;13.238;2023-11-21T09:46:48;5.11;84.95
6930;DHT22;3504;52.616;13.238;2023-11-21T09:51:55;5.10;84.42
6930;DHT22;3504;52.616;13.238;2023-11-21T09:57:00;5.06;84.13
6930;DHT22;3504;52.616;13.238;2023-11-21T10:02:00;5.04;84.25
6930;DHT22;3504;52.616;13.238;2023-11-21T10:07:03;4.90;84.39
6930;DHT22;3504;52.616;13.238;2023-11-21T10:12:06;4.89;84.71
6930;DHT22;3504;52.616;13.238;2023-11-21T10:17:12;4.94;84.84
6930;DHT22;3504;52.616;13.238;2023-11-21T10:22:18;4.92;84.48
6930;DHT22;3504;52.616;13.238;2023-11-21T10:27:20;4.89;83.97
6930;DHT22;3504;52.616;13.238;2023-11-21T10:32:20;4.94;84.34
6930;DHT22;3504;52.616;13.238;2023-11-21T10:37:21;4.80;84.04
6930;DHT22;3504;52.616;13.238;2023-11-21T10:42:21;4.83;84.17
6930;DHT22;3504;52.616;13.238;2023-11-21T10:47:25;4.86;83.79
6930;DHT22;3504;52.616;13.238;2023-11-21T10:52:27;4.89;83.49
6930;DHT22;3504;52.616;13.238;2023-11-21T10:57:27;4.86;83.63
6930;DHT22;3504;52.616;13.238;2023-11-21T11:02:28;4.80;83.30
6930;DHT22;3504;52.616;13.238;2023-11-21T11:07:33;4.79;83.73
6930;DHT22;3504;52.616;13.238;2023-11-21T11:12:35;4.86;84.40
6930;DHT22;3504;52.616;13.238;2023-11-21T11:17:39;4.84;83.41
6930;DHT22;3504;52.616;13.238;2023-11-21T11:28:01;4.89;83.72
6930;DHT22;3504;52.616;13.238;2023-11-21T11:33:21;4.94;83.32
6930;DHT22;3504;52.616;13.238;2023-11-21T11:38:33;4.97;83.08
6930;DHT22;3504;52.616;13.238;2023-11-21T11:43:34;4.90;82.53
6930;DHT22;3504;52.616;13.238;2023-11-21T11:48:44;5.03;84.14
6930;DHT22;3504;52.616;13.238;2023-11-21T11:53:47;4.99;83.43
6930;DHT22;3504;52.616;13.238;2023-11-21T11:58:49;4.97;83.32
6930;DHT22;3504;52.616;13.238;2023-11-21T12:09:23;4.93;83.30
6930;DHT22;3504;52.616;13.238;2023-11-21T12:14:24;4.84;83.73
6930;DHT22;3504;52.616;13.238;2023-11-21T12:19:24;4.77;84.31
6930;DHT22;3504;52.616;13.238;2023-11-21T12:24:25;4.73;84.41
6930;DHT22;3504;52.616;13.238;2023-11-21T12:29:26;4.68;84.70
6930;DHT22;3504;52.616;13.238;2023-11-21T12:34:29;4.59;84.58
6930;DHT22;3504;52.616;13.238;2023-11-21T12:39:31;4.65;84.37
6930;DHT22;3504;52.616;13.238;2023-11-21T12:44:31;4.59;84.40
6930;DHT22;3504;52.616;13.238;2023-11-21T12:49:32;4.56;84.40
6930;DHT22;3504;52.616;13.238;2023-11-21T12:54:34;4.62;84.32
6930;DHT22;3504;52.616;13.238;2023-11-21T12:59:35;4.53;84.09
6930;DHT22;3504;52.616;13.238;2023-11-21T13:04:38;4.44;84.78
6930;DHT22;3504;52.616;13.238;2023-11-21T13:09:39;4.32;84.38
6930;DHT22;3504;52.616;13.238;2023-11-21T13:14:40;4.38;84.10
6930;DHT22;3504;52.616;13.238;2023-11-21T13:19:40;4.28;83.33
6930;DHT22;3504;52.616;13.238;2023-11-21T13:24:42;4.14;83.02
6930;DHT22;3504;52.616;13.238;2023-11-21T13:29:43;4.12;84.12
6930;DHT22;3504;52.616;13.238;2023-11-21T13:34:44;4.10;83.69
6930;DHT22;3504;52.616;13.238;2023-11-21T13:39:47;4.15;84.37
6930;DHT22;3504;52.616;13.238;2023-11-21T13:44:55;4.05;84.21
6930;DHT22;3504;52.616;13.238;2023-11-21T13:49:56;4.05;84.33
6930;DHT22;3504;52.616;13.238;2023-11-21T13:54:56;4.04;84.16
6930;DHT22;3504;52.616;13.238;2023-11-21T13:59:57;3.94;83.18
6930;DHT22;3504;52.616;13.238;2023-11-21T14:04:59;3.89;84.01
6930;DHT22;3504;52.616;13.238;2023-11-21T14:10:04;3.81;83.40
6930;DHT22;3504;52.616;13.238;2023-11-21T14:15:13;3.67;83.66
6930;DHT22;3504;52.616;13.238;2023-11-21T14:20:17;3.59;83.23
6930;DHT22;3504;52.616;13.238;2023-11-21T14:25:21;3.50;83.60
6930;DHT22;3504;52.616;13.238;2023-11-21T14:30:22;3.40;82.66
6930;DHT22;3504;52.616;13.238;2023-11-21T14:35:23;3.38;83.12
6930;DHT22;3504;52.616;13.238;2023-11-21T14:40:24;3.40;82.34
6930;DHT22;3504;52.616;13.238;2023-11-21T14:45:24;3.28;81.75
6930;DHT22;3504;52.616;13.238;2023-11-21T14:50:26;3.26;81.48
6930;DHT22;3504;52.616;13.238;2023-11-21T14:55:43;3.23;81.42
6930;DHT22;3504;52.616;13.238;2023-11-21T15:00:50;3.18;81.27
6930;DHT22;3504;52.616;13.238;2023-11-21T15:05:52;3.19;82.13
6930;DHT22;3504;52.616;13.238;2023-11-21T15:10:54;3.25;81.89
6930;DHT22;3504;52.616;13.238;2023-11-21T15:15:55;3.36;82.19
6930;DHT22;3504;52.616;13.238;2023-11-21T15:20:55;3.39;82.00
6930;DHT22;3504;52.616;13.238;2023-11-21T15:25:56;3.36;81.49
6930;DHT22;3504;52.616;13.238;2023-11-21T15:30:56;3.32;80.95
6930;DHT22;3504;52.616;13.238;2023-11-21T15:35:57;3.28;80.76
6930;DHT22;3504;52.616;13.238;2023-11-21T15:40:59;3.26;81.03
6930;DHT22;3504;52.616;13.238;2023-11-21T15:45:59;3.20;81.21
6930;DHT22;3504;52.616;13.238;2023-11-21T15:51:02;3.08;79.58
6930;DHT22;3504;52.616;13.238;2023-11-21T15:56:04;2.89;77.87
6930;DHT22;3504;52.616;13.238;2023-11-21T16:01:05;2.98;79.46
6930;DHT22;3504;52.616;13.238;2023-11-21T16:06:05;2.88;78.68
6930;DHT22;3504;52.616;13.238;2023-11-21T16:11:09;2.85;79.03
6930;DHT22;3504;52.616;13.238;2023-11-21T16:16:10;2.81;79.29
6930;DHT22;3504;52.616;13.238;2023-11-21T16:21:12;2.85;79.37
6930;DHT22;3504;52.616;13.238;2023-11-21T16:26:12;2.77;79.48
6930;DHT22;3504;52.616;13.238;2023-11-21T16:31:13;2.78;79.28
6930;DHT22;3504;52.616;13.238;2023-11-21T16:36:13;2.81;79.71
6930;DHT22;3504;52.616;13.238;2023-11-21T16:41:14;2.77;79.65
6930;DHT22;3504;52.616;13.238;2023-11-21T16:46:17;2.76;79.92
6930;DHT22;3504;52.616;13.238;2023-11-21T16:51:19;2.87;80.61
6930;DHT22;3504;52.616;13.238;2023-11-21T16:56:20;2.87;79.97
6930;DHT22;3504;52.616;13.238;2023-11-21T17:01:20;2.87;79.80
6930;DHT22;3504;52.616;13.238;2023-11-21T17:06:21;2.83;79.72
6930;DHT22;3504;52.616;13.238;2023-11-21T17:11:23;2.85;79.51
6930;DHT22;3504;52.616;13.238;2023-11-21T17:16:24;2.81;79.44
6930;DHT22;3504;52.616;13.238;2023-11-21T17:21:24;2.76;79.20
6930;DHT22;3504;52.616;13.238;2023-11-21T17:26:25;2.78;79.82
6930;DHT22;3504;52.616;13.238;2023-11-21T17:31:25;2.70;78.72
6930;DHT22;3504;52.616;13.238;2023-11-21T17:36:26;2.74;79.66
6930;DHT22;3504;52.616;13.238;2023-11-21T17:41:26;2.71;79.00
6930;DHT22;3504;52.616;13.238;2023-11-21T17:46:27;2.71;79.52
6930;DHT22;3504;52.616;13.238;2023-11-21T17:51:27;2.63;78.83
6930;DHT22;3504;52.616;13.238;2023-11-21T17:56:28;2.64;79.01
6930;DHT22;3504;52.616;13.238;2023-11-21T18:01:29;2.60;78.90
6930;DHT22;3504;52.616;13.238;2023-11-21T18:06:33;2.50;78.07
6930;DHT22;3504;52.616;13.238;2023-11-21T18:11:34;2.50;78.34
6930;DHT22;3504;52.616;13.238;2023-11-21T18:16:35;2.40;77.65
6930;DHT22;3504;52.616;13.238;2023-11-21T18:21:39;2.42;78.41
6930;DHT22;3504;52.616;13.238;2023-11-21T18:26:40;2.40;77.80
6930;DHT22;3504;52.616;13.238;2023-11-21T18:31:41;2.36;77.86
6930;DHT22;3504;52.616;13.238;2023-11-21T18:36:43;2.40;77.70
6930;DHT22;3504;52.616;13.238;2023-11-21T18:41:44;2.37;77.70
6930;DHT22;3504;52.616;13.238;2023-11-21T18:46:45;2.39;77.80
6930;DHT22;3504;52.616;13.238;2023-11-21T18:51:46;2.40;78.78
6930;DHT22;3504;52.616;13.238;2023-11-21T18:56:49;2.47;78.32
6930;DHT22;3504;52.616;13.238;2023-11-21T19:01:51;2.44;77.96
6930;DHT22;3504;52.616;13.238;2023-11-21T19:06:53;2.39;78.17
6930;DHT22;3504;52.616;13.238;2023-11-21T19:11:54;2.33;77.71
6930;DHT22;3504;52.616;13.238;2023-11-21T19:16:54;2.35;78.21
6930;DHT22;3504;52.616;13.238;2023-11-21T19:21:56;2.36;77.95
6930;DHT22;3504;52.616;13.238;2023-11-21T19:26:57;2.40;78.60
6930;DHT22;3504;52.616;13.238;2023-11-21T19:31:57;2.40;78.59
6930;DHT22;3504;52.616;13.238;2023-11-21T19:36:58;2.37;78.40
6930;DHT22;3504;52.616;13.238;2023-11-21T19:41:58;2.30;78.76
6930;DHT22;3504;52.616;13.238;2023-11-21T19:46:59;2.29;78.91
6930;DHT22;3504;52.616;13.238;2023-11-21T19:51:59;2.32;79.51
6930;DHT22;3504;52.616;13.238;2023-11-21T19:57:00;2.42;79.50
6930;DHT22;3504;52.616;13.238;2023-11-21T20:02:05;2.37;79.65
6930;DHT22;3504;52.616;13.238;2023-11-21T20:07:05;2.33;78.98
6930;DHT22;3504;52.616;13.238;2023-11-21T20:12:06;2.33;79.71
6930;DHT22;3504;52.616;13.238;2023-11-21T20:17:07;2.35;79.63
6930;DHT22;3504;52.616;13.238;2023-11-21T20:22:07;2.36;79.96
6930;DHT22;3504;52.616;13.238;2023-11-21T20:27:08;2.36;79.10
6930;DHT22;3504;52.616;13.238;2023-11-21T20:32:08;2.32;79.48
6930;DHT22;3504;52.616;13.238;2023-11-21T20:37:09;2.35;79.24
6930;DHT22;3504;52.616;13.238;2023-11-21T20:42:09;2.35;79.23
6930;DHT22;3504;52.616;13.238;2023-11-21T20:47:11;2.36;79.17
6930;DHT22;3504;52.616;13.238;2023-11-21T20:52:11;2.32;78.93
6930;DHT22;3504;52.616;13.238;2023-11-21T20:57:12;2.26;78.99
6930;DHT22;3504;52.616;13.238;2023-11-21T21:02:12;2.26;79.36
6930;DHT22;3504;52.616;13.238;2023-11-21T21:07:13;2.25;79.40
6930;DHT22;3504;52.616;13.238;2023-11-21T21:12:14;2.19;79.43
6930;DHT22;3504;52.616;13.238;2023-11-21T21:17:14;2.13;79.28
6930;DHT22;3504;52.616;13.238;2023-11-21T21:22:14;2.05;79.70
6930;DHT22;3504;52.616;13.238;2023-11-21T21:27:16;2.03;79.87
6930;DHT22;3504;52.616;13.238;2023-11-21T21:32:16;1.95;79.87
6930;DHT22;3504;52.616;13.238;2023-11-21T21:37:17;1.91;79.98
6930;DHT22;3504;52.616;13.238;2023-11-21T21:42:17;1.82;79.79
6930;DHT22;3504;52.616;13.238;2023-11-21T21:47:18;1.74;79.68
6930;DHT22;3504;52.616;13.238;2023-11-21T21:52:18;1.65;79.60
6930;DHT22;3504;52.616;13.238;2023-11-21T21:57:19;1.61;80.17
6930;DHT22;3504;52.616;13.238;2023-11-21T22:02:21;1.55;80.20
6930;DHT22;3504;52.616;13.238;2023-11-21T22:07:22;1.52;80.40
6930;DHT22;3504;52.616;13.238;2023-11-21T22:12:22;1.46;80.18
6930;DHT22;3504;52.616;13.238;2023-11-21T22:17:23;1.39;80.39
6930;DHT22;3504;52.616;13.238;2023-11-21T22:22:23;1.33;80.42
6930;DHT22;3504;52.616;13.238;2023-11-21T22:27:24;1.26;80.56
6930;DHT22;3504;52.616;13.238;2023-11-21T22:32:24;1.19;80.71
6930;DHT22;3504;52.616;13.238;2023-11-21T22:37:25;1.17;80.99
6930;DHT22;3504;52.616;13.238;2023-11-21T22:42:25;1.11;80.83
6930;DHT22;3504;52.616;13.238;2023-11-21T22:47:26;1.06;80.79
6930;DHT22;3504;52.616;13.238;2023-11-21T22:52:26;1.03;80.87
6930;DHT22;3504;52.616;13.238;2023-11-21T22:57:27;1.02;81.08
6930;DHT22;3504;52.616;13.238;2023-11-21T23:02:27;1.00;81.18
6930;DHT22;3504;52.616;13.238;2023-11-21T23:07:28;0.95;81.44
6930;DHT22;3504;52.616;13.238;2023-11-21T23:12:28;0.92;81.44
6930;DHT22;3504;52.616;13.238;2023-11-21T23:17:28;0.92;81.30
6930;DHT22;3504;52.616;13.238;2023-11-21T23:22:30;0.88;81.38
6930;DHT22;3504;52.616;13.238;2023-11-21T23:27:32;0.85;81.32
6930;DHT22;3504;52.616;13.238;2023-11-21T23:32:33;0.83;81.35
6930;DHT22;3504;52.616;13.238;2023-11-21T23:37:34;0.76;81.53
6930;DHT22;3504;52.616;13.238;2023-11-21T23:42:34;0.72;81.52
6930;DHT22;3504;52.616;13.238;2023-11-21T23:47:35;0.69;81.51
6930;DHT22;3504;52.616;13.238;2023-11-21T23:52:35;0.64;81.36
6930;DHT22;3504;52.616;13.238;2023-11-21T23:57:36;0.59;81.43
